createdAt,value
2022-10-14T00:00:17.030Z,9.711538
2022-10-14T00:01:17.024Z,9.711618
2022-10-14T00:02:17.089Z,9.711542
2022-10-14T00:03:17.001Z,9.711570
2022-10-14T00:04:17.007Z,9.711719
2022-10-14T00:05:16.987Z,9.711866
2022-10-14T00:06:17.745Z,9.711808
2022-10-14T00:07:16.985Z,9.711777
2022-10-14T00:08:16.978Z,9.711683
2022-10-14T00:09:16.967Z,9.711603
2022-10-14T00:10:16.956Z,9.711574
2022-10-14T00:11:16.957Z,9.711554
2022-10-14T00:12:16.931Z,9.711506
2022-10-14T00:13:16.925Z,9.711517
2022-10-14T00:14:16.921Z,9.711621
2022-10-14T00:15:16.907Z,9.711656
2022-10-14T00:16:16.919Z,9.711563
2022-10-14T00:17:16.896Z,9.711558
2022-10-14T00:18:16.884Z,9.711611
2022-10-14T00:19:16.874Z,9.711676
2022-10-14T00:20:16.887Z,9.711657
2022-10-14T00:21:16.875Z,9.711635
2022-10-14T00:22:16.859Z,9.711575
2022-10-14T00:23:16.853Z,9.711540
2022-10-14T00:24:16.838Z,9.711526
2022-10-14T00:25:16.850Z,9.711624
2022-10-14T00:26:16.825Z,9.711831
2022-10-14T00:27:16.818Z,9.711815
2022-10-14T00:28:16.824Z,9.711626
2022-10-14T00:41:17.520Z,9.711485
2022-10-14T00:42:17.508Z,9.711414
2022-10-14T00:43:17.494Z,9.712993
2022-10-14T00:44:17.488Z,9.713028
2022-10-14T00:45:17.478Z,9.712588
2022-10-14T00:46:17.480Z,9.713085
2022-10-14T00:47:17.469Z,9.713361
2022-10-14T00:48:17.451Z,9.712321
2022-10-14T00:49:17.448Z,9.711359
2022-10-14T00:50:17.452Z,9.712289
2022-10-14T00:51:17.435Z,9.712018
2022-10-14T00:52:17.419Z,9.712169
2022-10-14T00:53:17.425Z,9.711172
2022-10-14T00:54:17.407Z,9.712114
2022-10-14T00:55:17.400Z,9.712078
2022-10-14T00:56:17.392Z,9.711527
2022-10-14T00:57:17.383Z,9.711481
2022-10-14T00:58:17.386Z,9.711481
2022-10-14T00:59:17.365Z,9.711481
2022-10-14T01:00:17.383Z,9.711481
2022-10-14T01:01:17.442Z,9.711481
2022-10-14T01:02:17.347Z,9.711481
2022-10-14T01:03:17.333Z,9.711481
2022-10-14T01:04:17.327Z,9.711481
2022-10-14T01:05:17.315Z,9.711481
2022-10-14T01:06:17.313Z,9.711691
2022-10-14T01:07:17.306Z,9.711637
2022-10-14T01:08:17.297Z,9.711759
2022-10-14T01:09:17.298Z,9.711727
2022-10-14T01:10:17.285Z,9.711724
2022-10-14T01:11:17.271Z,9.711773
2022-10-14T01:12:28.600Z,9.711815
2022-10-14T01:13:19.251Z,9.711751
2022-10-14T01:14:17.487Z,9.711870
2022-10-14T01:15:17.232Z,9.711841
2022-10-14T01:16:17.234Z,9.711960
2022-10-14T01:17:17.233Z,9.711981
2022-10-14T01:18:17.206Z,9.712034
2022-10-14T01:19:17.205Z,9.712143
2022-10-14T01:20:17.187Z,9.712139
2022-10-14T01:21:17.180Z,9.712229
2022-10-14T01:22:22.064Z,9.712187
2022-10-14T01:23:19.167Z,9.712303
2022-10-14T01:24:17.154Z,9.712303
2022-10-14T01:25:17.150Z,9.712303
2022-10-14T01:26:17.979Z,9.712303
2022-10-14T01:27:17.134Z,9.712303
2022-10-14T01:28:17.149Z,9.712303
2022-10-14T01:29:17.119Z,9.712303
2022-10-14T01:30:17.117Z,9.712303
2022-10-14T01:31:17.840Z,9.712303
2022-10-14T01:32:17.090Z,9.712303
2022-10-14T01:33:17.083Z,9.712303
2022-10-14T01:34:17.078Z,9.712303
2022-10-14T01:35:17.069Z,9.712303
2022-10-14T01:36:17.057Z,9.712303
2022-10-14T01:37:17.044Z,9.712303
2022-10-14T01:38:17.059Z,9.712303
2022-10-14T01:39:17.046Z,9.712303
2022-10-14T01:40:17.882Z,9.712303
2022-10-14T01:41:17.027Z,9.712303
2022-10-14T01:42:17.005Z,9.712303
2022-10-14T01:43:17.002Z,9.712303
2022-10-14T01:44:16.995Z,9.712303
2022-10-14T01:45:16.978Z,9.712303
2022-10-14T01:46:16.993Z,9.712303
2022-10-14T01:47:16.962Z,9.712303
2022-10-14T01:48:16.956Z,9.712303
2022-10-14T01:49:16.955Z,9.712303
2022-10-14T01:50:16.935Z,9.712303
2022-10-14T01:51:16.947Z,9.712303
2022-10-14T01:52:16.923Z,9.712303
2022-10-14T01:53:16.924Z,9.712303
2022-10-14T01:54:16.928Z,9.712303
2022-10-14T01:55:16.900Z,9.712303
2022-10-14T01:56:16.915Z,9.712303
2022-10-14T01:57:16.944Z,9.712303
2022-10-14T01:58:16.877Z,9.712303
2022-10-14T01:59:16.865Z,9.712303
2022-10-14T02:00:16.853Z,9.712303
2022-10-14T02:01:16.916Z,9.712303
2022-10-14T02:02:16.847Z,9.712303
2022-10-14T02:03:16.833Z,9.712303
2022-10-14T02:04:16.827Z,9.712303
2022-10-14T02:05:16.821Z,9.712303
2022-10-14T02:06:16.811Z,9.712303
2022-10-14T02:07:16.815Z,9.712303
2022-10-14T02:08:16.797Z,9.712303
2022-10-14T02:09:16.798Z,9.712303
2022-10-14T02:10:16.783Z,9.712303
2022-10-14T02:11:16.803Z,9.712303
2022-10-14T02:12:17.395Z,9.712303
2022-10-14T02:13:16.754Z,9.712303
2022-10-14T02:14:16.746Z,9.712303
2022-10-14T02:15:16.735Z,9.712303
2022-10-14T02:16:16.740Z,9.712303
2022-10-14T02:17:16.723Z,9.712303
2022-10-14T02:18:16.718Z,9.712303
2022-10-14T02:19:16.711Z,9.712303
2022-10-14T02:20:16.721Z,9.712303
2022-10-14T02:21:16.700Z,9.712303
2022-10-14T02:22:16.687Z,9.712303
2022-10-14T02:23:16.674Z,9.712303
2022-10-14T02:24:16.664Z,9.712303
2022-10-14T02:25:17.475Z,9.712303
2022-10-14T02:26:16.653Z,9.712303
2022-10-14T02:27:16.636Z,9.712303
2022-10-14T02:28:16.690Z,9.712303
2022-10-14T02:29:16.628Z,9.711707
2022-10-14T02:30:16.619Z,9.711696
2022-10-14T02:31:16.605Z,9.711710
2022-10-14T02:32:17.476Z,9.711627
2022-10-14T02:33:16.584Z,9.711668
2022-10-14T02:34:17.483Z,9.711656
2022-10-14T02:35:16.597Z,9.711663
2022-10-14T02:36:16.562Z,9.711726
2022-10-14T02:37:16.569Z,9.711696
2022-10-14T02:38:16.547Z,9.711689
2022-10-14T02:39:16.546Z,9.711691
2022-10-14T02:40:16.536Z,9.711704
2022-10-14T02:41:16.511Z,9.711718
2022-10-14T02:42:17.510Z,9.711663
2022-10-14T02:43:16.505Z,9.711652
2022-10-14T02:44:16.495Z,9.711771
2022-10-14T02:45:16.497Z,9.711778
2022-10-14T02:46:16.478Z,9.711701
2022-10-14T02:47:16.476Z,9.711699
2022-10-14T02:48:16.471Z,9.711680
2022-10-14T02:49:16.460Z,9.711658
2022-10-14T02:50:16.466Z,9.711721
2022-10-14T02:51:16.449Z,9.711682
2022-10-14T02:52:16.440Z,9.711673
2022-10-14T02:53:16.438Z,9.711666
2022-10-14T02:54:16.415Z,9.711681
2022-10-14T02:55:16.423Z,9.711644
2022-10-14T02:56:16.395Z,9.711650
2022-10-14T02:57:16.395Z,9.711660
2022-10-14T02:58:16.394Z,9.711735
2022-10-14T02:59:16.375Z,9.711660
2022-10-14T03:00:16.501Z,9.711654
2022-10-14T03:01:16.371Z,9.711631
2022-10-14T03:02:16.420Z,9.711626
2022-10-14T03:03:16.344Z,9.711678
2022-10-14T03:04:16.332Z,9.711631
2022-10-14T03:05:16.323Z,9.711684
2022-10-14T03:06:16.313Z,9.711628
2022-10-14T03:07:16.303Z,9.711697
2022-10-14T03:08:16.310Z,9.711681
2022-10-14T03:09:16.310Z,9.711540
2022-10-14T03:10:16.293Z,9.711452
2022-10-14T03:11:16.283Z,9.711704
2022-10-14T03:12:16.265Z,9.711728
2022-10-14T03:13:16.270Z,9.711711
2022-10-14T03:14:16.259Z,9.711633
2022-10-14T03:15:16.252Z,9.711468
2022-10-14T03:16:16.239Z,9.711549
2022-10-14T03:17:16.243Z,9.711539
2022-10-14T03:18:16.222Z,9.711679
2022-10-14T03:19:16.212Z,9.711607
2022-10-14T03:20:16.199Z,9.711644
2022-10-14T03:21:16.191Z,9.711581
2022-10-14T03:22:16.184Z,9.711481
2022-10-14T03:23:16.191Z,9.711430
2022-10-14T03:24:16.168Z,9.711292
2022-10-14T03:25:16.161Z,9.711264
2022-10-14T03:26:16.161Z,9.711322
2022-10-14T03:27:16.158Z,9.711114
2022-10-14T03:28:16.164Z,9.711144
2022-10-14T03:29:16.146Z,9.711008
2022-10-14T03:30:16.134Z,9.710738
2022-10-14T03:31:16.118Z,9.711738
2022-10-14T03:32:16.119Z,9.711734
2022-10-14T03:33:18.623Z,9.711891
2022-10-14T03:34:16.106Z,9.711380
2022-10-14T03:35:16.087Z,9.711720
2022-10-14T03:36:16.084Z,9.711636
2022-10-14T03:37:16.080Z,9.711467
2022-10-14T03:38:16.060Z,9.711541
2022-10-14T03:39:16.063Z,9.711566
2022-10-14T03:40:16.060Z,9.711618
2022-10-14T03:41:16.992Z,9.711533
2022-10-14T03:42:16.030Z,9.711553
2022-10-14T03:43:16.031Z,9.711516
2022-10-14T03:44:16.020Z,9.711532
2022-10-14T03:45:16.015Z,9.711518
2022-10-14T03:46:15.997Z,9.711531
2022-10-14T03:47:16.009Z,9.711583
2022-10-14T03:48:15.992Z,9.711590
2022-10-14T03:49:15.986Z,9.711567
2022-10-14T03:50:15.973Z,9.711572
2022-10-14T03:51:15.965Z,9.711528
2022-10-14T03:52:15.964Z,9.711539
2022-10-14T03:53:15.944Z,9.711631
2022-10-14T03:54:16.032Z,9.711679
2022-10-14T03:55:15.937Z,9.711709
2022-10-14T03:56:15.928Z,9.711681
2022-10-14T03:57:15.944Z,9.711691
2022-10-14T03:58:15.911Z,9.711633
2022-10-14T03:59:15.904Z,9.711632
2022-10-14T04:00:15.896Z,9.711655
2022-10-14T04:01:15.888Z,9.711668
2022-10-14T04:02:15.873Z,9.711665
2022-10-14T04:03:17.469Z,9.711676
2022-10-14T04:04:15.871Z,9.711664
2022-10-14T04:05:15.884Z,9.711655
2022-10-14T04:06:15.843Z,9.711643
2022-10-14T04:07:15.842Z,9.711641
2022-10-14T04:08:15.846Z,9.711656
2022-10-14T04:09:15.833Z,9.711621
2022-10-14T04:10:15.828Z,9.711636
2022-10-14T04:11:15.819Z,9.711623
2022-10-14T04:12:15.807Z,9.711637
2022-10-14T04:13:15.792Z,9.711584
2022-10-14T04:14:15.790Z,9.711620
2022-10-14T04:15:15.774Z,9.711660
2022-10-14T04:16:15.764Z,9.711674
2022-10-14T04:17:15.771Z,9.711688
2022-10-14T04:18:15.751Z,9.711656
2022-10-14T04:19:15.758Z,9.711637
2022-10-14T04:20:15.767Z,9.711658
2022-10-14T04:21:15.732Z,9.711734
2022-10-14T04:22:15.720Z,9.711802
2022-10-14T04:23:15.707Z,9.711867
2022-10-14T04:24:15.710Z,9.711812
2022-10-14T04:25:15.714Z,9.711838
2022-10-14T04:26:15.698Z,9.711827
2022-10-14T04:27:15.681Z,9.711975
2022-10-14T04:28:15.733Z,9.711900
2022-10-14T04:29:15.660Z,9.711843
2022-10-14T04:30:15.661Z,9.711956
2022-10-14T04:31:15.655Z,9.711801
2022-10-14T04:32:15.634Z,9.711571
2022-10-14T04:33:15.638Z,9.711729
2022-10-14T04:34:15.638Z,9.711647
2022-10-14T04:35:15.623Z,9.711811
2022-10-14T04:36:15.601Z,9.711962
2022-10-14T04:37:15.603Z,9.712111
2022-10-14T04:38:17.505Z,9.712054
2022-10-14T04:39:15.579Z,9.712085
2022-10-14T04:40:15.593Z,9.712091
2022-10-14T04:41:15.559Z,9.712099
2022-10-14T04:42:15.549Z,9.712111
2022-10-14T04:43:15.563Z,9.712040
2022-10-14T04:44:15.538Z,9.712038
2022-10-14T04:45:15.552Z,9.712002
2022-10-14T04:46:15.554Z,9.711657
2022-10-14T04:47:15.513Z,9.711520
2022-10-14T04:48:15.513Z,9.711624
2022-10-14T04:49:15.505Z,9.711649
2022-10-14T04:50:15.553Z,9.711617
2022-10-14T04:51:15.486Z,9.711691
2022-10-14T04:52:15.481Z,9.711678
2022-10-14T04:53:19.666Z,9.711715
2022-10-14T04:54:16.462Z,9.711787
2022-10-14T04:55:15.462Z,9.712000
2022-10-14T04:56:16.441Z,9.711751
2022-10-14T04:57:15.438Z,9.711644
2022-10-14T04:58:15.422Z,9.711643
2022-10-14T04:59:15.442Z,9.711745
2022-10-14T05:00:15.420Z,9.711617
2022-10-14T05:01:15.477Z,9.711691
2022-10-14T05:02:15.506Z,9.711749
2022-10-14T05:03:15.940Z,9.711614
2022-10-14T05:04:15.378Z,9.711646
2022-10-14T05:05:15.441Z,9.711699
2022-10-14T05:06:15.369Z,9.711592
2022-10-14T05:07:15.362Z,9.711615
2022-10-14T05:08:15.367Z,9.711569
2022-10-14T05:09:15.348Z,9.711583
2022-10-14T05:10:15.348Z,9.711577
2022-10-14T05:11:15.331Z,9.711588
2022-10-14T05:12:15.308Z,9.711563
2022-10-14T05:13:15.309Z,9.711552
2022-10-14T05:14:15.300Z,9.711579
2022-10-14T05:15:15.302Z,9.711574
2022-10-14T05:16:15.295Z,9.711633
2022-10-14T05:17:15.295Z,9.711593
2022-10-14T05:18:15.278Z,9.711487
2022-10-14T05:19:15.249Z,9.711527
2022-10-14T05:20:15.261Z,9.711485
2022-10-14T05:21:15.244Z,9.711507
2022-10-14T05:22:15.226Z,9.711532
2022-10-14T05:23:15.223Z,9.711578
2022-10-14T05:24:15.214Z,9.711530
2022-10-14T05:25:15.214Z,9.711543
2022-10-14T05:26:15.213Z,9.711527
2022-10-14T05:27:15.193Z,9.711514
2022-10-14T05:28:15.262Z,9.711583
2022-10-14T05:29:15.173Z,9.711528
2022-10-14T05:30:15.182Z,9.711551
2022-10-14T05:31:15.157Z,9.711522
2022-10-14T05:32:15.171Z,9.711489
2022-10-14T05:33:15.141Z,9.711556
2022-10-14T05:34:15.132Z,9.711499
2022-10-14T05:35:15.139Z,9.711572
2022-10-14T05:36:15.122Z,9.711587
2022-10-14T05:37:15.106Z,9.711637
2022-10-14T05:38:15.116Z,9.711608
2022-10-14T05:39:15.141Z,9.711751
2022-10-14T05:40:15.088Z,9.711678
2022-10-14T05:41:15.084Z,9.711613
2022-10-14T05:42:15.057Z,9.711649
2022-10-14T05:43:15.066Z,9.711636
2022-10-14T05:44:15.050Z,9.711604
2022-10-14T05:45:15.050Z,9.711696
2022-10-14T05:46:15.039Z,9.711617
2022-10-14T05:47:15.022Z,9.711649
2022-10-14T05:48:16.038Z,9.711618
2022-10-14T05:49:15.047Z,9.711671
2022-10-14T05:50:15.030Z,9.711588
2022-10-14T05:51:14.984Z,9.711782
2022-10-14T05:52:14.983Z,9.711841
2022-10-14T05:53:14.980Z,9.711950
2022-10-14T05:54:14.965Z,9.711754
2022-10-14T05:55:14.960Z,9.711631
2022-10-14T05:56:14.950Z,9.711657
2022-10-14T05:57:14.964Z,9.711581
2022-10-14T05:58:14.943Z,9.711674
2022-10-14T05:59:14.929Z,9.711658
2022-10-14T06:00:14.940Z,9.711636
2022-10-14T06:01:14.952Z,9.711613
2022-10-14T06:02:14.940Z,9.711628
2022-10-14T06:03:14.950Z,9.711625
2022-10-14T06:04:14.923Z,9.711615
2022-10-14T06:05:14.898Z,9.711614
2022-10-14T06:06:14.863Z,9.711629
2022-10-14T06:07:14.859Z,9.711637
2022-10-14T06:08:14.884Z,9.711610
2022-10-14T06:09:14.848Z,9.711602
2022-10-14T06:10:14.855Z,9.711651
2022-10-14T06:11:14.844Z,9.711643
2022-10-14T06:12:14.832Z,9.711643
2022-10-14T06:13:14.816Z,9.711596
2022-10-14T06:14:14.803Z,9.711515
2022-10-14T06:15:15.821Z,9.711589
2022-10-14T06:16:14.794Z,9.711595
2022-10-14T06:17:17.277Z,9.711697
2022-10-14T06:18:14.768Z,9.711671
2022-10-14T06:19:14.776Z,9.711715
2022-10-14T06:20:14.746Z,9.711694
2022-10-14T06:21:14.747Z,9.711613
2022-10-14T06:22:14.755Z,9.711570
2022-10-14T06:23:17.921Z,9.711612
2022-10-14T06:24:15.831Z,9.711612
2022-10-14T06:25:14.712Z,9.711744
2022-10-14T06:26:14.711Z,9.711688
2022-10-14T06:27:14.689Z,9.711616
2022-10-14T06:28:14.778Z,9.711727
2022-10-14T06:29:14.737Z,9.711686
2022-10-14T06:30:14.671Z,9.711490
2022-10-14T06:31:14.664Z,9.711604
2022-10-14T06:32:14.649Z,9.711699
2022-10-14T06:33:14.668Z,9.711730
2022-10-14T06:34:14.639Z,9.711741
2022-10-14T06:35:14.634Z,9.711864
2022-10-14T06:36:14.641Z,9.711874
2022-10-14T06:37:14.613Z,9.711799
2022-10-14T06:38:14.614Z,9.711839
2022-10-14T06:39:14.598Z,9.711672
2022-10-14T06:40:14.582Z,9.711699
2022-10-14T06:41:14.599Z,9.712024
2022-10-14T06:42:15.563Z,9.711686
2022-10-14T06:43:14.580Z,9.711740
2022-10-14T06:44:14.550Z,9.711897
2022-10-14T06:45:14.544Z,9.711911
2022-10-14T06:46:14.547Z,9.711896
2022-10-14T06:47:14.540Z,9.711983
2022-10-14T06:48:14.516Z,9.711922
2022-10-14T06:49:14.516Z,9.711968
2022-10-14T06:50:14.513Z,9.711789
2022-10-14T06:51:14.520Z,9.712148
2022-10-14T06:52:15.944Z,9.711952
2022-10-14T06:53:14.483Z,9.712014
2022-10-14T06:54:15.489Z,9.711839
2022-10-14T06:55:14.474Z,9.711741
2022-10-14T06:56:14.457Z,9.711659
2022-10-14T06:57:14.465Z,9.711614
2022-10-14T06:58:14.444Z,9.711318
2022-10-14T06:59:14.475Z,9.711441
2022-10-14T07:00:14.426Z,9.711735
2022-10-14T07:01:14.482Z,9.711566
2022-10-14T07:02:14.461Z,9.711587
2022-10-14T07:03:14.408Z,9.711761
2022-10-14T07:04:14.405Z,9.711761
2022-10-14T07:05:14.388Z,9.711753
2022-10-14T07:06:14.382Z,9.711793
2022-10-14T07:07:14.374Z,9.711845
2022-10-14T07:08:15.584Z,9.711714
2022-10-14T07:09:15.361Z,9.711901
2022-10-14T07:10:14.336Z,9.711806
2022-10-14T07:11:14.350Z,9.711984
2022-10-14T07:12:14.323Z,9.712043
2022-10-14T07:13:14.324Z,9.712116
2022-10-14T07:14:14.386Z,9.711982
2022-10-14T07:15:14.308Z,9.712042
2022-10-14T07:16:14.305Z,9.711897
2022-10-14T07:17:14.331Z,9.711822
2022-10-14T07:18:14.347Z,9.711737
2022-10-14T07:19:14.274Z,9.711696
2022-10-14T07:20:14.268Z,9.711644
2022-10-14T07:21:14.257Z,9.711621
2022-10-14T07:22:14.982Z,9.711639
2022-10-14T07:23:14.247Z,9.711612
2022-10-14T07:24:15.092Z,9.711617
2022-10-14T07:25:14.225Z,9.711609
2022-10-14T07:26:14.231Z,9.711596
2022-10-14T07:27:14.223Z,9.711573
2022-10-14T07:28:14.308Z,9.711569
2022-10-14T07:29:14.202Z,9.711591
2022-10-14T07:30:16.779Z,9.711641
2022-10-14T07:31:14.176Z,9.711627
2022-10-14T07:32:14.168Z,9.711669
2022-10-14T07:33:14.186Z,9.711670
2022-10-14T07:34:14.160Z,9.711653
2022-10-14T07:35:14.141Z,9.711643
2022-10-14T07:36:16.082Z,9.711598
2022-10-14T07:37:14.130Z,9.711617
2022-10-14T07:38:14.136Z,9.711586
2022-10-14T07:39:14.116Z,9.711567
2022-10-14T07:40:14.114Z,9.711535
2022-10-14T07:41:15.059Z,9.711605
2022-10-14T07:42:14.114Z,9.711712
2022-10-14T07:43:14.092Z,9.711709
2022-10-14T07:44:14.989Z,9.711596
2022-10-14T07:45:14.060Z,9.711531
2022-10-14T07:46:14.577Z,9.711541
2022-10-14T07:47:14.054Z,9.711516
2022-10-14T07:48:17.051Z,9.711530
2022-10-14T07:49:15.031Z,9.711510
2022-10-14T07:50:14.030Z,9.711509
2022-10-14T07:51:14.017Z,9.711553
2022-10-14T07:52:14.007Z,9.711567
2022-10-14T07:53:14.002Z,9.711522
2022-10-14T07:54:13.991Z,9.711563
2022-10-14T07:55:13.981Z,9.711572
2022-10-14T07:56:13.981Z,9.711591
2022-10-14T07:57:13.971Z,9.711572
2022-10-14T07:58:13.969Z,9.711505
2022-10-14T07:59:14.488Z,9.711530
2022-10-14T08:00:13.948Z,9.711499
2022-10-14T08:01:13.976Z,9.711554
2022-10-14T08:02:13.940Z,9.711575
2022-10-14T08:03:13.935Z,9.711586
2022-10-14T08:04:13.939Z,9.711608
2022-10-14T08:05:36.657Z,9.711630
2022-10-14T08:06:15.895Z,9.711535
2022-10-14T08:07:13.895Z,9.711551
2022-10-14T08:08:13.890Z,9.711567
2022-10-14T08:09:13.957Z,9.711611
2022-10-14T08:10:13.872Z,9.711614
2022-10-14T08:11:13.857Z,9.711602
2022-10-14T08:12:13.845Z,9.711661
2022-10-14T08:13:13.875Z,9.711639
2022-10-14T08:14:13.847Z,9.711675
2022-10-14T08:15:13.825Z,9.711646
2022-10-14T08:16:13.822Z,9.711779
2022-10-14T08:17:13.804Z,9.711697
2022-10-14T08:18:13.804Z,9.711744
2022-10-14T08:19:14.923Z,9.711696
2022-10-14T08:20:14.859Z,9.711657
2022-10-14T08:21:14.592Z,9.711999
2022-10-14T08:22:13.773Z,9.711808
2022-10-14T08:23:17.445Z,9.711739
2022-10-14T08:24:15.842Z,9.711918
2022-10-14T08:25:13.770Z,9.711833
2022-10-14T08:26:13.724Z,9.711917
2022-10-14T08:27:13.719Z,9.711988
2022-10-14T08:28:13.713Z,9.712079
2022-10-14T08:29:13.746Z,9.712199
2022-10-14T08:30:13.710Z,9.712246
2022-10-14T08:31:13.702Z,9.711909
2022-10-14T08:32:13.729Z,9.711959
2022-10-14T08:33:13.689Z,9.711827
2022-10-14T08:34:13.668Z,9.711676
2022-10-14T08:35:13.718Z,9.711686
2022-10-14T08:36:14.110Z,9.711823
2022-10-14T08:37:13.658Z,9.711726
2022-10-14T08:38:14.583Z,9.711982
2022-10-14T08:39:13.638Z,9.711778
2022-10-14T08:40:13.632Z,9.711949
2022-10-14T08:41:13.616Z,9.711800
2022-10-14T08:42:13.618Z,9.711897
2022-10-14T08:43:13.598Z,9.711835
2022-10-14T08:44:13.596Z,9.711767
2022-10-14T08:45:13.597Z,9.711905
2022-10-14T08:46:13.679Z,9.711846
2022-10-14T08:47:13.562Z,9.711749
2022-10-14T08:48:13.577Z,9.711596
2022-10-14T08:49:13.558Z,9.711684
2022-10-14T08:50:13.547Z,9.711735
2022-10-14T08:51:13.546Z,9.711779
2022-10-14T08:52:13.529Z,9.711807
2022-10-14T08:53:13.510Z,9.711716
2022-10-14T08:54:13.528Z,9.711775
2022-10-14T08:55:13.494Z,9.711736
2022-10-14T08:56:14.562Z,9.711613
2022-10-14T08:57:13.491Z,9.711597
2022-10-14T08:58:13.609Z,9.711633
2022-10-14T08:59:13.463Z,9.711844
2022-10-14T09:00:13.519Z,9.712036
2022-10-14T09:01:13.671Z,9.711872
2022-10-14T09:02:13.456Z,9.712106
2022-10-14T09:03:13.446Z,9.712296
2022-10-14T09:04:13.517Z,9.712390
2022-10-14T09:05:13.470Z,9.712337
2022-10-14T09:06:13.405Z,9.712868
2022-10-14T09:07:13.403Z,9.712479
2022-10-14T09:08:13.387Z,9.712408
2022-10-14T09:09:13.384Z,9.712021
2022-10-14T09:10:14.016Z,9.712135
2022-10-14T09:11:13.373Z,9.712016
2022-10-14T09:12:13.365Z,9.712214
2022-10-14T09:13:13.347Z,9.712468
2022-10-14T09:14:13.341Z,9.712446
2022-10-14T09:15:13.971Z,9.712302
2022-10-14T09:16:13.326Z,9.712011
2022-10-14T09:18:13.330Z,9.712671
2022-10-14T09:19:13.310Z,9.712645
2022-10-14T09:20:13.300Z,9.712514
2022-10-14T09:21:22.730Z,9.712340
2022-10-14T09:22:15.420Z,9.712346
2022-10-14T09:23:13.268Z,9.712442
2022-10-14T09:24:13.271Z,9.712348
2022-10-14T09:25:13.325Z,9.712021
2022-10-14T09:26:13.252Z,9.711926
2022-10-14T09:27:16.090Z,9.712016
2022-10-14T09:28:13.237Z,9.711938
2022-10-14T09:29:13.229Z,9.711885
2022-10-14T09:30:13.241Z,9.711897
2022-10-14T09:31:13.215Z,9.712152
2022-10-14T09:32:13.242Z,9.712282
2022-10-14T09:33:13.223Z,9.712263
2022-10-14T09:34:13.205Z,9.712133
2022-10-14T09:35:13.196Z,9.712005
2022-10-14T09:36:13.179Z,9.711926
2022-10-14T09:37:13.254Z,9.711920
2022-10-14T09:38:13.167Z,9.711823
2022-10-14T09:39:13.159Z,9.711838
2022-10-14T09:40:13.139Z,9.711838
2022-10-14T09:41:13.144Z,9.711975
2022-10-14T09:42:13.128Z,9.711968
2022-10-14T09:43:13.113Z,9.711938
2022-10-14T09:44:13.098Z,9.711823
2022-10-14T09:45:13.332Z,9.711752
2022-10-14T09:46:20.187Z,9.711792
2022-10-14T09:47:13.225Z,9.711823
2022-10-14T09:51:20.917Z,9.711519
2022-10-14T09:52:20.934Z,9.711649
2022-10-14T09:53:21.015Z,9.711492
2022-10-14T09:54:20.899Z,9.711456
2022-10-14T09:55:20.894Z,9.711602
2022-10-14T09:56:21.775Z,9.711628
2022-10-14T09:57:21.140Z,9.711626
2022-10-14T09:58:53.266Z,9.711723
2022-10-14T09:59:20.865Z,9.711641
2022-10-14T10:00:20.858Z,9.711808
2022-10-14T10:01:20.849Z,9.711651
2022-10-14T10:02:20.850Z,9.711668
2022-10-14T10:03:20.825Z,9.711625
2022-10-14T10:04:20.812Z,9.711701
2022-10-14T10:05:20.806Z,9.711605
2022-10-14T10:06:22.319Z,9.711564
2022-10-14T10:07:21.198Z,9.711650
2022-10-14T10:08:20.791Z,9.711659
2022-10-14T10:09:21.745Z,9.711671
2022-10-14T10:10:20.770Z,9.711703
2022-10-14T10:11:20.773Z,9.711789
2022-10-14T10:12:20.763Z,9.711704
2022-10-14T10:13:20.765Z,9.711617
2022-10-14T10:14:20.766Z,9.711693
2022-10-14T10:15:21.749Z,9.711895
2022-10-14T10:16:20.725Z,9.711890
2022-10-14T10:17:21.087Z,9.712251
2022-10-14T10:18:20.716Z,9.712088
2022-10-14T10:19:20.709Z,9.712094
2022-10-14T10:20:21.321Z,9.711946
2022-10-14T10:21:20.687Z,9.711576
2022-10-14T10:22:21.241Z,9.711808
2022-10-14T10:23:21.254Z,9.711892
2022-10-14T10:24:20.656Z,9.712066
2022-10-14T10:25:20.654Z,9.712008
2022-10-14T10:26:20.671Z,9.711864
2022-10-14T10:27:21.057Z,9.711497
2022-10-14T10:28:20.702Z,9.711591
2022-10-14T10:29:21.620Z,9.711672
2022-10-14T10:30:20.646Z,9.711835
2022-10-14T10:31:22.426Z,9.711771
2022-10-14T10:32:20.811Z,9.711797
2022-10-14T10:33:20.674Z,9.711647
2022-10-14T10:34:21.322Z,9.711683
2022-10-14T10:35:20.591Z,9.711617
2022-10-14T10:36:20.569Z,9.711608
2022-10-14T10:37:20.951Z,9.711721
2022-10-14T10:38:20.552Z,9.711689
2022-10-14T10:39:20.537Z,9.711689
2022-10-14T10:40:20.543Z,9.711672
2022-10-14T10:41:21.324Z,9.711599
2022-10-14T10:42:20.749Z,9.711695
2022-10-14T10:43:20.503Z,9.711764
2022-10-14T10:44:20.546Z,9.711784
2022-10-14T10:45:20.548Z,9.711727
2022-10-14T10:46:21.281Z,9.711679
2022-10-14T10:47:20.521Z,9.711823
2022-10-14T10:48:21.524Z,9.711722
2022-10-14T10:49:22.380Z,9.711752
2022-10-14T10:50:20.513Z,9.711757
2022-10-14T10:53:27.612Z,9.711699
2022-10-14T10:54:27.614Z,9.711840
2022-10-14T10:55:27.586Z,9.711847
2022-10-14T10:56:27.578Z,9.711788
2022-10-14T10:57:27.574Z,9.711757
2022-10-14T10:58:27.570Z,9.711722
2022-10-14T10:59:29.152Z,9.711787
2022-10-14T11:00:27.560Z,9.711740
2022-10-14T11:01:27.571Z,9.711691
2022-10-14T11:02:27.557Z,9.711715
2022-10-14T11:03:27.534Z,9.711707
2022-10-14T11:04:31.162Z,9.711652
2022-10-14T11:05:27.511Z,9.711623
2022-10-14T11:06:27.515Z,9.711768
2022-10-14T11:07:28.217Z,9.711552
2022-10-14T11:08:27.559Z,9.711843
2022-10-14T11:09:27.518Z,9.711918
2022-10-14T11:10:27.483Z,9.711862
2022-10-14T11:11:27.479Z,9.711810
2022-10-14T11:12:27.488Z,9.711866
2022-10-14T11:13:29.486Z,9.711887
2022-10-14T11:14:27.452Z,9.711936
2022-10-14T11:15:27.440Z,9.711856
2022-10-14T11:16:27.430Z,9.711958
2022-10-14T11:17:27.462Z,9.711968
2022-10-14T11:18:27.418Z,9.711924
2022-10-14T11:19:27.400Z,9.711903
2022-10-14T11:20:27.771Z,9.711885
2022-10-14T11:21:27.388Z,9.711675
2022-10-14T11:22:27.390Z,9.711649
2022-10-14T11:23:27.389Z,9.711723
2022-10-14T11:35:36.651Z,9.712388
2022-10-14T11:36:34.933Z,9.712481
2022-10-14T11:37:35.566Z,9.712481
2022-10-14T11:39:35.806Z,9.712481
2022-10-14T11:40:34.883Z,9.711596
2022-10-14T11:41:34.870Z,9.711596
2022-10-14T11:42:34.865Z,9.711596
2022-10-14T11:43:34.874Z,9.711596
2022-10-14T11:45:34.846Z,9.711596
2022-10-14T11:46:34.840Z,9.711596
2022-10-14T11:47:34.857Z,9.711596
2022-10-14T11:48:34.817Z,9.711596
2022-10-14T11:49:34.807Z,9.711596
2022-10-14T11:50:34.829Z,9.711596
2022-10-14T11:51:35.783Z,9.711596
2022-10-14T11:52:35.812Z,9.711596
2022-10-14T11:53:35.611Z,9.711596
2022-10-14T11:54:34.779Z,9.711596
2022-10-14T11:55:34.774Z,9.711596
2022-10-14T11:56:34.793Z,9.711596
2022-10-14T11:57:34.759Z,9.711596
2022-10-14T11:58:36.560Z,9.711596
2022-10-14T11:59:34.768Z,9.711596
2022-10-14T12:00:34.732Z,9.711596
2022-10-14T12:01:37.377Z,9.711596
2022-10-14T12:02:34.784Z,9.711596
2022-10-14T12:03:34.703Z,9.711596
2022-10-14T12:04:34.696Z,9.711596
2022-10-14T12:05:35.573Z,9.711596
2022-10-14T12:06:34.676Z,9.711596
2022-10-14T12:07:34.672Z,9.711596
2022-10-14T12:08:35.699Z,9.711596
2022-10-14T12:10:34.643Z,9.711645
2022-10-14T12:11:34.643Z,9.711656
2022-10-14T12:12:34.643Z,9.711685
2022-10-14T12:13:34.610Z,9.711675
2022-10-14T12:14:34.633Z,9.711668
2022-10-14T12:15:35.568Z,9.711596
2022-10-14T12:16:34.588Z,9.711900